Hlavní strana
METAR-TAF:

METAR-TAF

Letiště :

Salvador, Bahía, Brazílie

zeměpisná šířka: 12-54S, zeměpisná délka: 038-20W, výška: 6 m

Aktuální stav počasí

Zpráva byla vytvořena před 54 minutami, v 10:00 UTC
Bezvětří
Teplota 28°C
Vlhkost vzduchu 84%
Tlak 1013 hPa
Viditelnost 10 km a více
Skoro jasno ve výšce 2300 ft

METAR: SBSV 101000Z 00000KT 9999 FEW023 28/25 Q1013

Čas: 07:54 (10:54 UTC)

Předpověď počasí

Zpráva byla vytvořena před 7 hodinami a 54 minutami, v 03:00 UTC
Předpověď platná od 10 v 06 UTC do 11 v 06 UTC
Západní vítr 3 kt
Viditelnost 10 km a více
Polojasno ve výšce 2000 ft
Změna
od 10 v 07 UTC do 10 v 09 UTC
Severoseverozápadní vítr 5 kt
Změna
od 10 v 11 UTC do 10 v 13 UTC
Východní vítr 10 kt
Změna
od 11 v 03 UTC do 11 v 05 UTC
Západní vítr 2 kt

TAF: SBSV 100300Z 1006/1106 28003KT 9999 SCT020 TN25/1007Z TX31/1014Z BECMG 1007/1009 34005KT BECMG 1011/1013 08010KT BECMG 1103/1105 28002KT RMK PDY

Stav a předpovědi počasí z více než 4 000 letišť (zprávy METAR a TAF).

Červené a žluté tečky na mapě představují dostupné meteorologické stanice.

Když kurzor umístíte na tečku, zobrazí se název stanice.

Pak kliknutím zobrazíte stav a předpověď počasí.

Chcete-li změnit mapu, kliknutím na zelené tlačítko se znaménkem +mapu přiblížíte, kliknutím na zelené tlačítko se znaménkem – mapu oddálíte a kliknutím na zelené šipky přejdete na sousední mapy.


METAR-TAF: